Flight Track Log - Related Links

Times and Time Zones

All times are in EST time to prevent confusion due to time zone crossing. See the N92EJ flight status page for this flight to view local times or setup timezone preferences in your user account.

Time Position Orientation Groundspeed Altitude Reporting Facility
EST Latitude Longitude Course Direction KTS MPH feet Rate Location/Type
Sun 04:36:50 PM 42.4444 -74.9764 143° Southeast 103 119 5,200  Level Boston Center
Sun 04:37:50 PM 42.4164 -74.9503 146° Southeast 116 133 5,400 149 Climbing Boston Center
Sun 04:38:51 PM 42.3806 -74.9167 145° Southeast 147 169 5,500 48 Climbing Boston Center
Sun 04:39:55 PM 42.3464 -74.8808 142° Southeast 154 177 5,500  Level Boston Center
Sun 04:40:56 PM 42.3078 -74.8339 138° Southeast 156 180 5,500  Level Boston Center
Sun 04:41:56 PM 42.2750 -74.7939 138° Southeast 158 182 5,500  Level Boston Center
Sun 04:43:00 PM 42.2414 -74.7567 141° Southeast 158 182 5,500  Level Boston Center
Sun 04:44:00 PM 42.2094 -74.7164 137° Southeast 157 181 5,500  Level Boston Center
Sun 04:45:02 PM 42.1772 -74.6783 139° Southeast 155 178 5,500  Level Boston Center
Sun 04:46:03 PM 42.1453 -74.6417 140° Southeast 152 175 5,500  Level Boston Center
Sun 04:47:04 PM 42.1125 -74.6025 138° Southeast 156 180 5,500  Level Boston Center
Sun 04:48:04 PM 42.0811 -74.5650 138° Southeast 153 176 5,500 39 Level Boston Center
Sun 04:49:38 PM 42.0167 -74.5000 143° Southeast 166 191 5,600 39 Climbing New York TRACON
Sun 04:50:38 PM 41.9833 -74.4667 143° Southeast 159 183 5,600  Level New York TRACON
Sun 04:51:43 PM 41.9500 -74.4167 132° Southeast 162 186 5,600  Level New York TRACON
Sun 04:52:43 PM 41.9167 -74.3833 143° Southeast 159 183 5,600  Level New York TRACON
Sun 04:54:08 PM 41.8667 -74.3167 135° Southeast 163 188 5,600  Level New York TRACON
Sun 04:55:13 PM 41.8333 -74.2833 143° Southeast 161 185 5,600  Level New York TRACON
Sun 04:56:08 PM 41.8000 -74.2500 143° Southeast 164 189 5,600  Level New York TRACON
Sun 04:57:13 PM 41.7667 -74.2000 132° Southeast 162 186 5,600  Level New York TRACON
Sun 04:58:08 PM 41.7333 -74.1667 143° Southeast 164 189 5,600  Level New York TRACON
Sun 04:59:13 PM 41.7000 -74.1167 132° Southeast 165 190 5,600  Level New York TRACON
Sun 05:00:08 PM 41.6667 -74.0833 143° Southeast 166 191 5,600  Level New York TRACON
Sun 05:01:13 PM 41.6333 -74.0333 132° Southeast 166 191 5,600  Level New York TRACON
Sun 05:02:13 PM 41.6000 -74.0000 143° Southeast 167 192 5,600  Level New York TRACON
Sun 05:03:08 PM 41.5667 -73.9667 143° Southeast 166 191 5,600  Level New York TRACON
Sun 05:04:08 PM 41.5333 -73.9167 132° Southeast 167 192 5,600  Level New York TRACON
Sun 05:05:07 PM 41.5000 -73.8833 143° Southeast 166 191 5,600 -50 Level New York TRACON
Sun 05:06:08 PM 41.4667 -73.8500 143° Southeast 167 192 5,500 -95 Descending New York TRACON
Sun 05:07:13 PM 41.4167 -73.8000 143° Southeast 170 196 5,400  Descending New York TRACON
Sun 05:08:08 PM 41.3833 -73.7667 143° Southeast 166 191 5,500 52 Climbing New York TRACON
Sun 05:09:08 PM 41.3500 -73.7167 132° Southeast 166 191 5,500  Level New York TRACON
Sun 05:10:08 PM 41.3167 -73.6833 143° Southeast 167 192 5,500  Level New York TRACON
Sun 05:11:08 PM 41.2833 -73.6500 143° Southeast 166 191 5,500  Level New York TRACON
Sun 05:12:08 PM 41.2500 -73.6000 132° Southeast 166 191 5,500  Level New York TRACON
Sun 05:13:08 PM 41.2167 -73.5667 143° Southeast 163 188 5,500  Level New York TRACON
Sun 05:14:07 PM 41.1833 -73.5333 143° Southeast 163 188 5,500  Level New York TRACON
Sun 05:15:08 PM 41.1500 -73.4833 132° Southeast 164 189 5,500 -149 Level New York TRACON
Sun 05:16:08 PM 41.1000 -73.4500 153° Southeast 168 193 5,200 -263 Descending New York TRACON
Sun 05:17:02 PM 41.0833 -73.4167 124° Southeast 161 185 5,000 -350 Descending New York TRACON
Sun 05:18:08 PM 41.0333 -73.3667 143° Southeast 165 190 4,500 -450 Descending New York TRACON
Sun 05:19:02 PM 41.0000 -73.3333 143° Southeast 167 192 4,100 -500 Descending New York TRACON
Sun 05:20:08 PM 40.9667 -73.3000 143° Southeast 168 193 3,500 -429 Descending New York TRACON
Sun 05:21:08 PM 40.9333 -73.2500 131° Southeast 164 189 3,200 -400 Descending New York TRACON
Sun 05:22:08 PM 40.9000 -73.2167 143° Southeast 167 192 2,700 -450 Descending New York TRACON
Sun 05:23:08 PM 40.8500 -73.2000 166° South 163 188 2,300 -350 Descending New York TRACON
Sun 05:24:08 PM 40.8167 -73.1833 159° South 139 160 2,000 -400 Descending New York TRACON
Sun 05:25:08 PM 40.7833 -73.1667 159° South 108 124 1,500 -450 Descending New York TRACON
Sun 05:26:08 PM 40.7667 -73.1500 143° Southeast 99 114 1,100 -550 Descending New York TRACON
Sun 05:27:08 PM 40.7833 -73.1167 57° Northeast 92 106 400 -700 Descending New York TRACON
Sun 05:29:00 PM 40.7952 -73.1002 90° East  Level Estimated

Login

Don't have an account? Register now (free) for customized features, flight alerts, and more!